Antares — DFJQ — position and weather

sailwx.info

Track history (hours):
 
Tides and Currents Weather Stations Pressure Air Temp Water Temp Dewpoint Dewpoint Depression Visibility Wind Speed Wind Dir Waves Ship Positions

Antares

Last reported at 2015-Jul-28 21:33 UTC. Time now 2015-Jul-28 21:47 UTC.
Position N 53°52' E 008°43'.

Length 79 m; draft 5.3 m.

Type: Ship. MMSI: 218777000.

Date/timePositionNaut miles runAvg speedWind from/ knotsBaromVisibWave heightAir tempDewpointWater temp
2015-Jul-28 21:33N 53°52' E 008°43'0 0.0
2015-Jul-28 20:33N 53°52' E 008°43'0 0.0
2015-Jul-28 19:33N 53°52' E 008°43'0 0.4
2015-Jul-28 18:34N 53°52' E 008°43'0 0.1
2015-Jul-28 17:31N 53°52' E 008°43'0 0.0
2015-Jul-28 16:32N 53°52' E 008°43'0 0.0
2015-Jul-28 15:31N 53°52' E 008°43'0 0.0
2015-Jul-28 14:31N 53°52' E 008°43'0 0.1
2015-Jul-28 13:34N 53°52' E 008°43'5 5.2
2015-Jul-28 12:34N 53°57' E 008°39'9 8.5
2015-Jul-28 11:33N 53°59' E 008°25'9 9.3
2015-Jul-28 10:34N 53°59' E 008°09'1010.0
2015-Jul-28 09:34N 53°57' E 007°52'1110.5
2015-Jul-28 08:32N 53°55' E 007°35'1110.8
2015-Jul-28 07:33N 53°52' E 007°17'2411.1
2015-Jul-28 05:22N 53°46' E 006°37'2011.3
2015-Jul-28 03:34N 53°41' E 006°04'1111.2
2015-Jul-28 02:34N 53°37' E 005°46'1111.3
2015-Jul-28 01:33N 53°34' E 005°28'1111.2
2015-Jul-28 00:34N 53°30' E 005°10'1111.2
2015-Jul-27 23:34N 53°26' E 004°53'10 9.9
2015-Jul-27 22:31N 53°19' E 004°40'13 9.7
2015-Jul-27 21:13N 53°08' E 004°30'6 9.3
2015-Jul-27 20:33N 53°02' E 004°25'9 9.2
2015-Jul-27 19:34N 52°54' E 004°18'9 9.0
2015-Jul-27 18:34N 52°46' E 004°11'9 9.0
2015-Jul-27 17:33N 52°39' E 004°02'9 8.9
2015-Jul-27 16:33N 52°31' E 003°55'9 9.1
2015-Jul-27 15:34N 52°22' E 003°53'9 9.1
2015-Jul-27 14:33N 52°13' E 003°53'9 9.0
2015-Jul-27 13:34N 52°04' E 003°58'8 7.9
2015-Jul-27 12:33N 51°59' E 004°07'8 7.8
2015-Jul-27 11:34N 51°54' E 004°17'2 1.9
2015-Jul-27 10:33N 51°53' E 004°19'0 0.0
2015-Jul-27 09:32N 51°53' E 004°19'0 0.0
2015-Jul-27 08:32N 51°53' E 004°19'0 0.0
2015-Jul-27 07:32N 51°53' E 004°19'0 0.0
2015-Jul-27 06:29N 51°53' E 004°19'0 0.0
2015-Jul-27 05:32N 51°53' E 004°19'0 0.0
2015-Jul-27 04:32N 51°53' E 004°19'0 0.0
2015-Jul-27 03:29N 51°53' E 004°19'0 0.0
2015-Jul-27 02:32N 51°53' E 004°19'0 0.0
2015-Jul-27 01:29N 51°53' E 004°19'0 0.0
2015-Jul-27 00:32N 51°53' E 004°19'0 0.0
2015-Jul-26 23:32N 51°53' E 004°19'0 0.0
2015-Jul-26 22:32N 51°53' E 004°19'0 0.0
2015-Jul-26 21:32N 51°53' E 004°19'0 0.0
2015-Jul-26 20:32N 51°53' E 004°19'0 0.0
2015-Jul-26 19:32N 51°53' E 004°19'0 0.0
2015-Jul-26 18:32N 51°53' E 004°19'0 0.0
2015-Jul-26 17:32N 51°53' E 004°19'0 0.0
2015-Jul-26 16:32N 51°53' E 004°19'0 0.0
2015-Jul-26 15:32N 51°53' E 004°19'1 1.4
2015-Jul-26 14:33N 51°54' E 004°17'8 7.8
2015-Jul-26 13:33N 51°58' E 004°07'10 9.5
2015-Jul-26 12:33N 51°59' E 003°52'9 8.9
2015-Jul-26 11:33N 51°58' E 003°38'12 2.0
2015-Jul-26 05:31N 51°50' E 003°23'0 0.0
2015-Jul-26 04:22N 51°50' E 003°23'0 0.0
2015-Jul-26 02:10N 51°50' E 003°23'0 0.0
2015-Jul-26 01:31N 51°50' E 003°23'0 0.0
2015-Jul-25 23:09N 51°50' E 003°23'0 0.0
2015-Jul-25 22:25N 51°50' E 003°23'0 0.0
2015-Jul-25 20:14N 51°50' E 003°23'0 0.0
2015-Jul-25 19:12N 51°50' E 003°23'5 7.8
2015-Jul-25 18:33N 51°53' E 003°18'11 1.6
2015-Jul-25 11:32N 52°04' E 003°24'3 2.9
2015-Jul-25 10:25N 52°00' E 003°24'3 3.8
2015-Jul-25 09:32N 51°57' E 003°22'42 8.4
2015-Jul-25 04:33N 51°35' E 002°25'8 8.0
2015-Jul-25 03:33N 51°29' E 002°16'8 8.4
2015-Jul-25 02:33N 51°22' E 002°08'8 8.2
2015-Jul-25 01:33N 51°15' E 002°03'9 8.9
2015-Jul-25 00:33N 51°09' E 001°52'9 8.7
2015-Jul-24 23:33N 51°04' E 001°41'9 8.7
2015-Jul-24 22:33N 50°58' E 001°31'38 9.3
2015-Jul-24 18:31N 50°30' E 000°51'20 9.7
2015-Jul-24 16:30N 50°25' E 000°21'27 8.3
2015-Jul-24 13:15N 50°41' W 000°12'7 0.8
2015-Jul-24 04:30N 50°48' W 000°15'2 1.9
2015-Jul-24 03:33N 50°50' W 000°13'0 0.0
2015-Jul-24 02:27N 50°50' W 000°13'0 0.0
2015-Jul-24 01:33N 50°50' W 000°13'0 0.0
2015-Jul-24 00:33N 50°50' W 000°13'0 0.0
2015-Jul-23 23:33N 50°50' W 000°13'0 0.0
2015-Jul-23 22:33N 50°50' W 000°13'0 0.0
2015-Jul-23 21:33N 50°50' W 000°13'0 0.0
2015-Jul-23 18:09N 50°50' W 000°13'0 0.0
2015-Jul-23 17:30N 50°50' W 000°13'0 0.0
2015-Jul-23 15:26N 50°50' W 000°13'1 0.7
2015-Jul-23 14:34N 50°50' W 000°14'3 2.5
2015-Jul-23 13:29N 50°47' W 000°15'18 2.0
2015-Jul-23 04:23N 50°33' E 000°03'910.0
2015-Jul-23 03:30N 50°35' E 000°16'9 9.3
2015-Jul-23 02:34N 50°38' E 000°29'9 8.9
2015-Jul-23 01:34N 50°42' E 000°42'9 8.9
2015-Jul-23 00:34N 50°47' E 000°53'9 8.9
2015-Jul-22 23:34N 50°52' E 001°05'9 8.9
2015-Jul-22 22:34N 50°58' E 001°15'9 9.0
2015-Jul-22 21:34N 51°04' E 001°27'9 9.1
2015-Jul-22 20:33N 51°10' E 001°38'9 8.7
2015-Jul-22 19:33N 51°16' E 001°47'8 8.5
2015-Jul-22 18:33N 51°23' E 001°55'7 7.0
2015-Jul-22 17:34N 51°24' E 002°06'8 8.2
2015-Jul-22 16:34N 51°21' E 002°18'7 7.3
2015-Jul-22 15:34N 51°23' E 002°29'8 7.9
2015-Jul-22 14:34N 51°22' E 002°42'8 8.5
2015-Jul-22 13:34N 51°23' E 002°55'1010.1
2015-Jul-22 12:33N 51°24' E 003°12'1010.4
2015-Jul-22 11:34N 51°25' E 003°28'9 9.4
2015-Jul-22 10:34N 51°23' E 003°43'10 9.7
2015-Jul-22 09:34N 51°26' E 003°58'9 9.2
2015-Jul-22 08:34N 51°24' E 004°12'9 8.5
2015-Jul-22 07:34N 51°17' E 004°20'1 0.5
2015-Jul-22 06:33N 51°16' E 004°20'2 1.6
2015-Jul-22 05:33N 51°15' E 004°22'0 0.0
2015-Jul-22 04:33N 51°15' E 004°22'0 0.0
2015-Jul-22 03:33N 51°15' E 004°22'0 0.0
2015-Jul-22 02:33N 51°15' E 004°22'0 0.0
2015-Jul-22 01:33N 51°15' E 004°22'0 0.0
2015-Jul-22 00:33N 51°15' E 004°22'0 0.0
2015-Jul-21 23:33N 51°15' E 004°22'0 0.0
2015-Jul-21 22:33N 51°15' E 004°22'0 0.0
2015-Jul-21 21:33N 51°15' E 004°22'0 0.0
2015-Jul-21 20:33N 51°15' E 004°22'0 0.0
2015-Jul-21 19:33N 51°15' E 004°22'0 0.0
2015-Jul-21 18:33N 51°15' E 004°22'0 0.0
2015-Jul-21 17:33N 51°15' E 004°22'0 0.0
2015-Jul-21 16:33N 51°15' E 004°22'0 0.0
2015-Jul-21 15:33N 51°15' E 004°22'0 0.0
2015-Jul-21 14:33N 51°15' E 004°22'0 0.0
2015-Jul-21 13:33N 51°15' E 004°22'0 0.0
2015-Jul-21 12:33N 51°15' E 004°22'0 0.0
2015-Jul-21 11:33N 51°15' E 004°22'0 0.0
2015-Jul-21 10:33N 51°15' E 004°22'0 0.0
2015-Jul-21 09:30N 51°15' E 004°22'0 0.0
2015-Jul-21 08:33N 51°15' E 004°22'0 0.0
2015-Jul-21 07:33N 51°15' E 004°22'0 0.0
2015-Jul-21 06:33N 51°15' E 004°22'0 0.0
2015-Jul-21 05:33N 51°15' E 004°22'0 0.0
2015-Jul-21 04:33N 51°15' E 004°22'0 0.0
2015-Jul-21 03:33N 51°15' E 004°22'0 0.0
2015-Jul-21 02:33N 51°15' E 004°22'0 0.0
2015-Jul-21 01:33N 51°15' E 004°22'2 2.1
2015-Jul-21 00:33N 51°17' E 004°20'4 3.7
2015-Jul-20 23:33N 51°20' E 004°16'6 6.1
2015-Jul-20 22:33N 51°22' E 004°07'7 6.5
2015-Jul-20 21:33N 51°26' E 003°58'7 7.3
2015-Jul-20 20:33N 51°21' E 003°50'7 7.4
2015-Jul-20 19:34N 51°25' E 003°40'8 7.6
2015-Jul-20 18:33N 51°29' E 003°30'9 8.5
2015-Jul-20 17:32N 51°36' E 003°22'10 7.9
2015-Jul-20 16:15N 51°46' E 003°16'3 4.5
2015-Jul-20 15:33N 51°48' E 003°20'0 0.0
2015-Jul-20 05:19N 51°48' E 003°20'0 0.0
2015-Jul-20 04:31N 51°48' E 003°20'0 0.0
2015-Jul-20 03:31N 51°48' E 003°20'0 0.0
2015-Jul-20 02:31N 51°48' E 003°20'0 0.0
2015-Jul-19 08:16N 51°48' E 003°20'0 0.1
2015-Jul-19 07:18N 51°48' E 003°20'9 7.1
2015-Jul-19 06:05N 51°57' E 003°19'5 8.9
2015-Jul-19 05:32N 52°01' E 003°20'45 9.1
2015-Jul-19 00:33N 52°45' E 003°42'1311.2
2015-Jul-18 23:25N 52°54' E 003°56'1111.3
2015-Jul-18 22:29N 53°01' E 004°09'1010.7
2015-Jul-18 21:33N 53°08' E 004°21'  
Track history (hours):
 
Tides and Currents Weather Stations Pressure Air Temp Water Temp Dewpoint Dewpoint Depression Visibility Wind Speed Wind Dir Waves Ship Positions

Antares

Last reported at 2015-Jul-28 21:33 UTC. Time now 2015-Jul-28 21:47 UTC.
Position N 53°52' E 008°43'.

Length 79 m; draft 5.3 m.

Type: Ship. MMSI: 218777000.

Date/timePositionNaut miles runAvg speedWind from/ knotsBaromVisibWave heightAir tempDewpointWater temp
2015-Jul-28 21:33N 53°52' E 008°43'0 0.0
2015-Jul-28 20:33N 53°52' E 008°43'0 0.0
2015-Jul-28 19:33N 53°52' E 008°43'0 0.4
2015-Jul-28 18:34N 53°52' E 008°43'0 0.1
2015-Jul-28 17:31N 53°52' E 008°43'0 0.0
2015-Jul-28 16:32N 53°52' E 008°43'0 0.0
2015-Jul-28 15:31N 53°52' E 008°43'0 0.0
2015-Jul-28 14:31N 53°52' E 008°43'0 0.1
2015-Jul-28 13:34N 53°52' E 008°43'5 5.2
2015-Jul-28 12:34N 53°57' E 008°39'9 8.5
2015-Jul-28 11:33N 53°59' E 008°25'9 9.3
2015-Jul-28 10:34N 53°59' E 008°09'1010.0
2015-Jul-28 09:34N 53°57' E 007°52'1110.5
2015-Jul-28 08:32N 53°55' E 007°35'1110.8
2015-Jul-28 07:33N 53°52' E 007°17'2411.1
2015-Jul-28 05:22N 53°46' E 006°37'2011.3
2015-Jul-28 03:34N 53°41' E 006°04'1111.2
2015-Jul-28 02:34N 53°37' E 005°46'1111.3
2015-Jul-28 01:33N 53°34' E 005°28'1111.2
2015-Jul-28 00:34N 53°30' E 005°10'1111.2
2015-Jul-27 23:34N 53°26' E 004°53'10 9.9
2015-Jul-27 22:31N 53°19' E 004°40'13 9.7
2015-Jul-27 21:13N 53°08' E 004°30'6 9.3
2015-Jul-27 20:33N 53°02' E 004°25'9 9.2
2015-Jul-27 19:34N 52°54' E 004°18'9 9.0
2015-Jul-27 18:34N 52°46' E 004°11'9 9.0
2015-Jul-27 17:33N 52°39' E 004°02'9 8.9
2015-Jul-27 16:33N 52°31' E 003°55'9 9.1
2015-Jul-27 15:34N 52°22' E 003°53'9 9.1
2015-Jul-27 14:33N 52°13' E 003°53'9 9.0
2015-Jul-27 13:34N 52°04' E 003°58'8 7.9
2015-Jul-27 12:33N 51°59' E 004°07'8 7.8
2015-Jul-27 11:34N 51°54' E 004°17'2 1.9
2015-Jul-27 10:33N 51°53' E 004°19'0 0.0
2015-Jul-27 09:32N 51°53' E 004°19'0 0.0
2015-Jul-27 08:32N 51°53' E 004°19'0 0.0
2015-Jul-27 07:32N 51°53' E 004°19'0 0.0
2015-Jul-27 06:29N 51°53' E 004°19'0 0.0
2015-Jul-27 05:32N 51°53' E 004°19'0 0.0
2015-Jul-27 04:32N 51°53' E 004°19'0 0.0
2015-Jul-27 03:29N 51°53' E 004°19'0 0.0
2015-Jul-27 02:32N 51°53' E 004°19'0 0.0
2015-Jul-27 01:29N 51°53' E 004°19'0 0.0
2015-Jul-27 00:32N 51°53' E 004°19'0 0.0
2015-Jul-26 23:32N 51°53' E 004°19'0 0.0
2015-Jul-26 22:32N 51°53' E 004°19'0 0.0
2015-Jul-26 21:32N 51°53' E 004°19'0 0.0
2015-Jul-26 20:32N 51°53' E 004°19'0 0.0
2015-Jul-26 19:32N 51°53' E 004°19'0 0.0
2015-Jul-26 18:32N 51°53' E 004°19'0 0.0
2015-Jul-26 17:32N 51°53' E 004°19'0 0.0
2015-Jul-26 16:32N 51°53' E 004°19'0 0.0
2015-Jul-26 15:32N 51°53' E 004°19'1 1.4
2015-Jul-26 14:33N 51°54' E 004°17'8 7.8
2015-Jul-26 13:33N 51°58' E 004°07'10 9.5
2015-Jul-26 12:33N 51°59' E 003°52'9 8.9
2015-Jul-26 11:33N 51°58' E 003°38'12 2.0
2015-Jul-26 05:31N 51°50' E 003°23'0 0.0
2015-Jul-26 04:22N 51°50' E 003°23'0 0.0
2015-Jul-26 02:10N 51°50' E 003°23'0 0.0
2015-Jul-26 01:31N 51°50' E 003°23'0 0.0
2015-Jul-25 23:09N 51°50' E 003°23'0 0.0
2015-Jul-25 22:25N 51°50' E 003°23'0 0.0
2015-Jul-25 20:14N 51°50' E 003°23'0 0.0
2015-Jul-25 19:12N 51°50' E 003°23'5 7.8
2015-Jul-25 18:33N 51°53' E 003°18'11 1.6
2015-Jul-25 11:32N 52°04' E 003°24'3 2.9
2015-Jul-25 10:25N 52°00' E 003°24'3 3.8
2015-Jul-25 09:32N 51°57' E 003°22'42 8.4
2015-Jul-25 04:33N 51°35' E 002°25'8 8.0
2015-Jul-25 03:33N 51°29' E 002°16'8 8.4
2015-Jul-25 02:33N 51°22' E 002°08'8 8.2
2015-Jul-25 01:33N 51°15' E 002°03'9 8.9
2015-Jul-25 00:33N 51°09' E 001°52'9 8.7
2015-Jul-24 23:33N 51°04' E 001°41'9 8.7
2015-Jul-24 22:33N 50°58' E 001°31'38 9.3
2015-Jul-24 18:31N 50°30' E 000°51'20 9.7
2015-Jul-24 16:30N 50°25' E 000°21'27 8.3
2015-Jul-24 13:15N 50°41' W 000°12'7 0.8
2015-Jul-24 04:30N 50°48' W 000°15'2 1.9
2015-Jul-24 03:33N 50°50' W 000°13'0 0.0
2015-Jul-24 02:27N 50°50' W 000°13'0 0.0
2015-Jul-24 01:33N 50°50' W 000°13'0 0.0
2015-Jul-24 00:33N 50°50' W 000°13'0 0.0
2015-Jul-23 23:33N 50°50' W 000°13'0 0.0
2015-Jul-23 22:33N 50°50' W 000°13'0 0.0
2015-Jul-23 21:33N 50°50' W 000°13'0 0.0
2015-Jul-23 18:09N 50°50' W 000°13'0 0.0
2015-Jul-23 17:30N 50°50' W 000°13'0 0.0
2015-Jul-23 15:26N 50°50' W 000°13'1 0.7
2015-Jul-23 14:34N 50°50' W 000°14'3 2.5
2015-Jul-23 13:29N 50°47' W 000°15'18 2.0
2015-Jul-23 04:23N 50°33' E 000°03'910.0
2015-Jul-23 03:30N 50°35' E 000°16'9 9.3
2015-Jul-23 02:34N 50°38' E 000°29'9 8.9
2015-Jul-23 01:34N 50°42' E 000°42'9 8.9
2015-Jul-23 00:34N 50°47' E 000°53'9 8.9
2015-Jul-22 23:34N 50°52' E 001°05'9 8.9
2015-Jul-22 22:34N 50°58' E 001°15'9 9.0
2015-Jul-22 21:34N 51°04' E 001°27'9 9.1
2015-Jul-22 20:33N 51°10' E 001°38'9 8.7
2015-Jul-22 19:33N 51°16' E 001°47'8 8.5
2015-Jul-22 18:33N 51°23' E 001°55'7 7.0
2015-Jul-22 17:34N 51°24' E 002°06'8 8.2
2015-Jul-22 16:34N 51°21' E 002°18'7 7.3
2015-Jul-22 15:34N 51°23' E 002°29'8 7.9
2015-Jul-22 14:34N 51°22' E 002°42'8 8.5
2015-Jul-22 13:34N 51°23' E 002°55'1010.1
2015-Jul-22 12:33N 51°24' E 003°12'1010.4
2015-Jul-22 11:34N 51°25' E 003°28'9 9.4
2015-Jul-22 10:34N 51°23' E 003°43'10 9.7
2015-Jul-22 09:34N 51°26' E 003°58'9 9.2
2015-Jul-22 08:34N 51°24' E 004°12'9 8.5
2015-Jul-22 07:34N 51°17' E 004°20'1 0.5
2015-Jul-22 06:33N 51°16' E 004°20'2 1.6
2015-Jul-22 05:33N 51°15' E 004°22'0 0.0
2015-Jul-22 04:33N 51°15' E 004°22'0 0.0
2015-Jul-22 03:33N 51°15' E 004°22'0 0.0
2015-Jul-22 02:33N 51°15' E 004°22'0 0.0
2015-Jul-22 01:33N 51°15' E 004°22'0 0.0
2015-Jul-22 00:33N 51°15' E 004°22'0 0.0
2015-Jul-21 23:33N 51°15' E 004°22'0 0.0
2015-Jul-21 22:33N 51°15' E 004°22'0 0.0
2015-Jul-21 21:33N 51°15' E 004°22'0 0.0
2015-Jul-21 20:33N 51°15' E 004°22'0 0.0
2015-Jul-21 19:33N 51°15' E 004°22'0 0.0
2015-Jul-21 18:33N 51°15' E 004°22'0 0.0
2015-Jul-21 17:33N 51°15' E 004°22'0 0.0
2015-Jul-21 16:33N 51°15' E 004°22'0 0.0
2015-Jul-21 15:33N 51°15' E 004°22'0 0.0
2015-Jul-21 14:33N 51°15' E 004°22'0 0.0
2015-Jul-21 13:33N 51°15' E 004°22'0 0.0
2015-Jul-21 12:33N 51°15' E 004°22'0 0.0
2015-Jul-21 11:33N 51°15' E 004°22'0 0.0
2015-Jul-21 10:33N 51°15' E 004°22'0 0.0
2015-Jul-21 09:30N 51°15' E 004°22'0 0.0
2015-Jul-21 08:33N 51°15' E 004°22'0 0.0
2015-Jul-21 07:33N 51°15' E 004°22'0 0.0
2015-Jul-21 06:33N 51°15' E 004°22'0 0.0
2015-Jul-21 05:33N 51°15' E 004°22'0 0.0
2015-Jul-21 04:33N 51°15' E 004°22'0 0.0
2015-Jul-21 03:33N 51°15' E 004°22'0 0.0
2015-Jul-21 02:33N 51°15' E 004°22'0 0.0
2015-Jul-21 01:33N 51°15' E 004°22'2 2.1
2015-Jul-21 00:33N 51°17' E 004°20'4 3.7
2015-Jul-20 23:33N 51°20' E 004°16'6 6.1
2015-Jul-20 22:33N 51°22' E 004°07'7 6.5
2015-Jul-20 21:33N 51°26' E 003°58'7 7.3
2015-Jul-20 20:33N 51°21' E 003°50'7 7.4
2015-Jul-20 19:34N 51°25' E 003°40'8 7.6
2015-Jul-20 18:33N 51°29' E 003°30'9 8.5
2015-Jul-20 17:32N 51°36' E 003°22'10 7.9
2015-Jul-20 16:15N 51°46' E 003°16'3 4.5
2015-Jul-20 15:33N 51°48' E 003°20'0 0.0
2015-Jul-20 05:19N 51°48' E 003°20'0 0.0
2015-Jul-20 04:31N 51°48' E 003°20'0 0.0
2015-Jul-20 03:31N 51°48' E 003°20'0 0.0
2015-Jul-20 02:31N 51°48' E 003°20'0 0.0
2015-Jul-19 08:16N 51°48' E 003°20'0 0.1
2015-Jul-19 07:18N 51°48' E 003°20'9 7.1
2015-Jul-19 06:05N 51°57' E 003°19'5 8.9
2015-Jul-19 05:32N 52°01' E 003°20'45 9.1
2015-Jul-19 00:33N 52°45' E 003°42'1311.2
2015-Jul-18 23:25N 52°54' E 003°56'1111.3
2015-Jul-18 22:29N 53°01' E 004°09'1010.7
2015-Jul-18 21:33N 53°08' E 004°21'  

Dump ship's entire track history